createdAt,value
2022-08-07T00:00:52.305Z,49.57
2022-08-07T00:03:55.178Z,48.86
2022-08-07T00:06:57.139Z,50.23
2022-08-07T00:10:26.311Z,49.95
2022-08-07T00:13:26.880Z,50.82
2022-08-07T00:16:29.053Z,49.94
2022-08-07T00:19:59.649Z,50.22
2022-08-07T00:22:53.310Z,50.99
2022-08-07T00:26:00.294Z,48.93
2022-08-07T00:29:03.604Z,49.74
2022-08-07T00:32:08.011Z,50.14
2022-08-07T00:35:10.111Z,47.83
2022-08-07T00:38:13.095Z,49.85
2022-08-07T00:41:15.289Z,49.89
2022-08-07T00:44:17.305Z,50.75
2022-08-07T00:48:08.157Z,49.27
2022-08-07T00:50:43.731Z,50.00
2022-08-07T00:53:54.992Z,51.07
2022-08-07T00:56:57.230Z,49.59
2022-08-07T01:00:00.168Z,49.42
2022-08-07T01:03:02.058Z,47.91
2022-08-07T01:06:03.877Z,49.47
2022-08-07T01:09:05.794Z,49.14
2022-08-07T01:12:29.923Z,50.21
2022-08-07T01:15:35.782Z,48.79
2022-08-07T01:18:53.322Z,49.79
2022-08-07T01:21:56.617Z,49.47
2022-08-07T01:24:58.641Z,50.44
2022-08-07T01:28:00.490Z,48.57
2022-08-07T01:31:02.856Z,49.53
2022-08-07T01:34:05.902Z,50.46
2022-08-07T01:37:09.912Z,49.19
2022-08-07T01:40:14.857Z,49.79
2022-08-07T01:43:17.437Z,49.86
2022-08-07T01:46:21.485Z,47.92
2022-08-07T01:49:23.366Z,47.12
2022-08-07T01:52:25.457Z,45.43
2022-08-07T01:55:29.153Z,48.13
2022-08-07T01:58:33.345Z,49.31
2022-08-07T02:02:01.629Z,47.61
2022-08-07T02:05:06.450Z,48.07
2022-08-07T02:08:09.815Z,47.20
2022-08-07T02:11:30.728Z,48.69
2022-08-07T02:14:40.862Z,48.33
2022-08-07T02:17:49.576Z,46.78
2022-08-07T02:20:55.959Z,48.35
2022-08-07T02:23:59.341Z,48.79
2022-08-07T02:27:03.816Z,48.07
2022-08-07T02:30:07.124Z,49.26
2022-08-07T02:33:10.692Z,46.74
2022-08-07T02:36:30.136Z,48.68
2022-08-07T02:39:43.383Z,49.08
2022-08-07T02:42:46.262Z,47.54
2022-08-07T02:45:59.177Z,47.79
2022-08-07T02:49:04.342Z,48.21
2022-08-07T02:52:09.573Z,50.08
2022-08-07T02:55:28.669Z,50.46
2022-08-07T02:58:39.806Z,49.73
2022-08-07T03:01:52.130Z,47.69
2022-08-07T03:04:56.928Z,49.52
2022-08-07T03:08:07.151Z,48.90
2022-08-07T03:11:12.301Z,48.62
2022-08-07T03:14:14.254Z,49.46
2022-08-07T03:17:16.913Z,50.22
2022-08-07T03:20:18.835Z,48.09
2022-08-07T03:23:22.003Z,48.12
2022-08-07T03:26:36.128Z,48.94
2022-08-07T03:29:53.492Z,48.03
2022-08-07T03:32:58.612Z,51.51
2022-08-07T03:36:01.136Z,50.29
2022-08-07T03:39:08.964Z,50.58
2022-08-07T03:42:11.526Z,51.00
2022-08-07T03:45:29.953Z,50.74
2022-08-07T03:48:45.400Z,49.61
2022-08-07T03:52:01.969Z,50.75
2022-08-07T03:55:06.812Z,50.94
2022-08-07T03:59:06.670Z,50.09
2022-08-07T04:01:32.202Z,48.98
2022-08-07T04:04:34.650Z,51.08
2022-08-07T04:07:45.139Z,50.59
2022-08-07T04:10:54.129Z,50.13
2022-08-07T04:14:37.473Z,50.77
2022-08-07T04:18:30.979Z,51.74
2022-08-07T04:20:55.199Z,51.14
2022-08-07T04:24:01.991Z,51.94
2022-08-07T04:27:20.751Z,52.41
2022-08-07T04:30:43.437Z,50.88
2022-08-07T04:33:56.585Z,52.10
2022-08-07T04:37:02.846Z,51.61
2022-08-07T04:40:10.117Z,53.57
2022-08-07T04:43:14.920Z,51.18
2022-08-07T04:46:59.594Z,49.64
2022-08-07T04:50:07.646Z,50.75
2022-08-07T04:53:27.714Z,49.65
2022-08-07T04:58:09.900Z,49.94
2022-08-07T05:00:33.031Z,49.17
2022-08-07T05:04:06.453Z,50.90
2022-08-07T05:07:19.567Z,48.26
2022-08-07T05:10:42.236Z,49.39
2022-08-07T05:14:55.794Z,47.80
2022-08-07T05:17:12.007Z,50.56
2022-08-07T05:20:18.215Z,50.72
2022-08-07T05:23:29.015Z,49.22
2022-08-07T05:26:33.143Z,47.61
2022-08-07T05:29:51.058Z,47.02
2022-08-07T05:32:55.657Z,45.82
2022-08-07T05:35:59.695Z,45.91
2022-08-07T05:40:05.841Z,46.66
2022-08-07T05:42:34.332Z,46.14
2022-08-07T05:45:46.466Z,46.84
2022-08-07T05:48:58.220Z,46.57
2022-08-07T05:52:01.862Z,47.82
2022-08-07T05:55:10.884Z,46.30
2022-08-07T05:58:13.477Z,47.48
2022-08-07T06:01:15.688Z,47.79
2022-08-07T06:04:18.428Z,49.03
2022-08-07T06:07:22.892Z,48.52
2022-08-07T06:10:43.850Z,48.18
2022-08-07T06:14:12.212Z,46.64
2022-08-07T06:17:08.790Z,45.70
2022-08-07T06:20:12.858Z,45.80
2022-08-07T06:24:36.943Z,44.54
2022-08-07T06:26:50.807Z,45.32
2022-08-07T06:29:52.923Z,44.12
2022-08-07T06:32:54.913Z,42.73
2022-08-07T06:36:06.385Z,44.30
2022-08-07T06:40:15.816Z,44.62
2022-08-07T06:42:37.576Z,43.87
2022-08-07T06:45:39.560Z,43.36
2022-08-07T06:48:46.546Z,44.04
2022-08-07T06:51:50.148Z,42.09
2022-08-07T06:55:31.841Z,43.00
2022-08-07T06:58:14.079Z,42.72
2022-08-07T07:01:18.556Z,40.61
2022-08-07T07:04:28.098Z,41.61
2022-08-07T07:07:59.379Z,41.98
2022-08-07T07:10:57.862Z,41.42
2022-08-07T07:14:02.216Z,41.58
2022-08-07T07:17:06.914Z,42.65
2022-08-07T07:20:18.808Z,40.31
2022-08-07T07:24:06.389Z,39.88
2022-08-07T07:26:51.906Z,39.28
2022-08-07T07:30:07.485Z,41.47
2022-08-07T07:33:12.353Z,40.90
2022-08-07T07:36:17.176Z,41.38
2022-08-07T07:39:20.213Z,40.96
2022-08-07T07:42:25.740Z,42.45
2022-08-07T07:46:39.998Z,41.27
2022-08-07T07:49:00.008Z,39.56
2022-08-07T07:52:02.737Z,40.96
2022-08-07T07:55:05.645Z,38.16
2022-08-07T07:58:07.591Z,39.91
2022-08-07T08:02:02.855Z,38.27
2022-08-07T08:04:34.229Z,36.60
2022-08-07T08:07:51.452Z,37.75
2022-08-07T08:10:59.603Z,37.27
2022-08-07T08:14:01.575Z,38.42
2022-08-07T08:17:56.615Z,38.62
2022-08-07T08:20:32.355Z,36.91
2022-08-07T08:23:52.967Z,37.06
2022-08-07T08:27:05.926Z,35.40
2022-08-07T08:30:14.330Z,34.53
2022-08-07T08:33:21.991Z,34.25
2022-08-07T08:36:25.611Z,35.75
2022-08-07T08:39:38.973Z,33.77
2022-08-07T08:42:53.208Z,32.94
2022-08-07T08:46:15.625Z,33.40
2022-08-07T08:49:33.678Z,34.21
2022-08-07T08:52:53.850Z,32.04
2022-08-07T08:56:00.990Z,35.22
2022-08-07T08:59:06.636Z,32.19
2022-08-07T09:02:36.609Z,31.57
2022-08-07T09:05:52.222Z,30.81
2022-08-07T09:09:01.614Z,27.89
2022-08-07T09:12:33.067Z,28.39
2022-08-07T09:16:25.928Z,30.37
2022-08-07T09:19:51.533Z,27.61
2022-08-07T09:24:52.405Z,27.76
2022-08-07T09:26:24.118Z,27.92
2022-08-07T09:30:04.373Z,26.63
2022-08-07T09:33:05.469Z,28.06
2022-08-07T09:36:35.853Z,28.62
2022-08-07T09:40:08.694Z,27.41
2022-08-07T09:43:40.253Z,28.52
2022-08-07T09:47:49.844Z,28.91
2022-08-07T09:50:19.482Z,28.54
2022-08-07T09:53:22.598Z,28.40
2022-08-07T09:56:42.933Z,28.16
2022-08-07T10:00:00.755Z,29.13
2022-08-07T10:03:08.467Z,27.95
2022-08-07T10:06:35.642Z,28.66
2022-08-07T10:10:00.935Z,27.25
2022-08-07T10:13:55.305Z,28.64
2022-08-07T10:17:01.135Z,27.71
2022-08-07T10:20:30.319Z,28.97
2022-08-07T10:24:06.409Z,27.50
2022-08-07T10:27:06.693Z,25.45
2022-08-07T10:30:19.618Z,28.65
2022-08-07T10:34:04.913Z,29.26
2022-08-07T10:37:12.757Z,28.38
2022-08-07T10:40:17.347Z,27.48
2022-08-07T10:43:34.159Z,28.41
2022-08-07T10:46:41.173Z,27.95
2022-08-07T10:49:55.592Z,29.20
2022-08-07T10:53:08.356Z,29.27
2022-08-07T10:56:31.612Z,28.41
2022-08-07T10:59:38.282Z,28.13
2022-08-07T11:02:42.596Z,28.03
2022-08-07T11:05:56.297Z,28.86
2022-08-07T11:09:03.801Z,27.64
2022-08-07T11:12:32.196Z,27.76
2022-08-07T11:15:36.376Z,27.37
2022-08-07T11:18:43.927Z,26.71
2022-08-07T11:21:53.157Z,26.05
2022-08-07T11:25:14.836Z,28.79
2022-08-07T11:28:27.885Z,26.98
2022-08-07T11:31:51.818Z,26.25
2022-08-07T11:34:55.253Z,27.80
2022-08-07T11:38:17.658Z,27.56
2022-08-07T11:41:31.064Z,26.42
2022-08-07T11:44:52.151Z,26.91
2022-08-07T11:48:29.605Z,27.71
2022-08-07T11:51:41.644Z,25.32
2022-08-07T11:55:18.569Z,25.25
2022-08-07T11:58:33.838Z,25.85
2022-08-07T12:01:59.034Z,24.71
2022-08-07T12:05:15.218Z,21.58
2022-08-07T12:08:35.071Z,21.05
2022-08-07T12:12:09.219Z,22.07
2022-08-07T12:15:17.267Z,22.04
2022-08-07T12:18:45.195Z,19.05
2022-08-07T12:22:39.125Z,19.93
2022-08-07T12:26:05.529Z,20.23
2022-08-07T12:29:37.826Z,20.47
2022-08-07T12:32:50.781Z,19.54
2022-08-07T12:35:57.716Z,23.26
2022-08-07T12:39:01.860Z,24.82
2022-08-07T12:42:04.155Z,24.67
2022-08-07T12:45:13.845Z,24.45
2022-08-07T12:48:28.411Z,24.12
2022-08-07T12:51:51.013Z,24.72
2022-08-07T12:55:09.715Z,28.85
2022-08-07T12:58:18.492Z,28.78
2022-08-07T13:01:28.041Z,30.07
2022-08-07T13:04:44.140Z,30.20
2022-08-07T13:08:18.952Z,28.29
2022-08-07T13:11:21.245Z,28.19
2022-08-07T13:14:50.989Z,29.16
2022-08-07T13:18:08.699Z,28.25
2022-08-07T13:21:23.597Z,29.01
2022-08-07T13:24:53.858Z,28.30
2022-08-07T13:28:13.765Z,28.68
2022-08-07T13:31:24.834Z,29.04
2022-08-07T13:34:44.867Z,28.78
2022-08-07T13:38:09.546Z,26.21
2022-08-07T13:41:11.451Z,25.71
2022-08-07T13:44:13.420Z,27.68
2022-08-07T13:47:15.905Z,28.77
2022-08-07T13:50:44.160Z,28.61
2022-08-07T13:53:59.299Z,29.41
2022-08-07T13:57:07.031Z,28.91
2022-08-07T14:00:13.370Z,28.16
2022-08-07T14:03:30.055Z,27.74
2022-08-07T14:06:50.486Z,29.05
2022-08-07T14:10:12.007Z,27.06
2022-08-07T14:13:16.450Z,26.21
2022-08-07T14:16:19.491Z,27.32
2022-08-07T14:20:42.448Z,26.88
2022-08-07T14:22:59.135Z,27.28
2022-08-07T14:26:28.020Z,27.59
2022-08-07T14:32:58.292Z,28.65
2022-08-07T14:36:00.327Z,27.91
2022-08-07T14:39:04.569Z,28.51
2022-08-07T14:42:18.542Z,27.53
2022-08-07T14:45:47.154Z,28.69
2022-08-07T14:48:48.903Z,29.14
2022-08-07T14:55:17.730Z,27.66
2022-08-07T15:05:20.355Z,29.40
2022-08-07T15:08:54.689Z,28.85
2022-08-07T15:15:39.074Z,27.29
2022-08-07T15:18:43.715Z,28.58
2022-08-07T15:22:04.159Z,28.05
2022-08-07T15:25:16.987Z,29.01
2022-08-07T15:28:34.652Z,28.98
2022-08-07T15:31:57.960Z,27.72
2022-08-07T15:35:06.469Z,29.19
2022-08-07T15:42:44.484Z,28.76
2022-08-07T15:44:53.064Z,28.56
2022-08-07T15:48:00.707Z,29.25
2022-08-07T15:54:39.264Z,28.59
2022-08-07T15:57:48.771Z,28.66
2022-08-07T16:00:51.242Z,28.12
2022-08-07T16:03:58.358Z,28.45
2022-08-07T16:07:00.922Z,27.29
2022-08-07T16:10:15.039Z,27.75
2022-08-07T16:13:39.548Z,29.22
2022-08-07T16:16:48.493Z,28.00
2022-08-07T16:20:06.771Z,28.84
2022-08-07T16:23:53.115Z,29.30
2022-08-07T16:26:59.040Z,28.10
2022-08-07T16:30:10.843Z,29.58
2022-08-07T16:34:01.404Z,29.71
2022-08-07T16:38:03.654Z,28.83
2022-08-07T16:40:57.071Z,29.12
2022-08-07T16:44:40.505Z,28.02
2022-08-07T16:47:58.131Z,28.67
2022-08-07T16:51:57.756Z,28.90
2022-08-07T16:54:54.845Z,28.38
2022-08-07T16:58:04.396Z,29.73
2022-08-07T17:01:18.482Z,29.70
2022-08-07T17:04:36.941Z,28.45
2022-08-07T17:07:58.160Z,29.72
2022-08-07T17:11:01.959Z,30.49
2022-08-07T17:14:19.602Z,29.70
2022-08-07T17:17:44.341Z,29.76
2022-08-07T17:20:49.690Z,29.49
2022-08-07T17:24:15.737Z,29.99
2022-08-07T17:27:19.827Z,29.62
2022-08-07T17:30:26.674Z,29.94
2022-08-07T17:34:09.529Z,29.19
2022-08-07T17:36:57.896Z,29.67
2022-08-07T17:40:14.975Z,29.95
2022-08-07T17:43:22.637Z,30.10
2022-08-07T17:46:53.486Z,30.41
2022-08-07T17:49:55.484Z,30.43
2022-08-07T17:53:06.119Z,29.57
2022-08-07T17:56:25.975Z,29.09
2022-08-07T17:59:35.398Z,30.36
2022-08-07T18:02:56.684Z,29.20
2022-08-07T18:06:09.283Z,29.32
2022-08-07T18:10:04.967Z,30.76
2022-08-07T18:12:54.080Z,30.21
2022-08-07T18:16:15.851Z,29.73
2022-08-07T18:21:09.695Z,30.58
2022-08-07T18:23:42.119Z,29.75
2022-08-07T18:26:53.185Z,30.77
2022-08-07T18:30:08.443Z,31.77
2022-08-07T18:33:28.954Z,31.12
2022-08-07T18:37:09.655Z,31.30
2022-08-07T18:40:38.637Z,31.44
2022-08-07T18:43:48.879Z,30.79
2022-08-07T18:46:58.245Z,31.76
2022-08-07T18:50:39.729Z,31.59
2022-08-07T18:53:55.765Z,30.01
2022-08-07T18:57:29.717Z,27.39
2022-08-07T19:00:42.358Z,27.06
2022-08-07T19:04:00.213Z,26.98
2022-08-07T19:07:04.311Z,28.58
2022-08-07T19:10:18.497Z,28.16
2022-08-07T19:13:24.333Z,27.79
2022-08-07T19:17:05.738Z,27.96
2022-08-07T19:20:29.782Z,27.62
2022-08-07T19:23:58.309Z,27.58
2022-08-07T19:28:30.230Z,27.64
2022-08-07T19:31:06.121Z,27.67
2022-08-07T19:33:57.952Z,27.87
2022-08-07T19:37:09.875Z,27.25
2022-08-07T19:40:30.395Z,27.74
2022-08-07T19:43:48.938Z,27.36
2022-08-07T19:47:03.122Z,27.33
2022-08-07T19:50:43.102Z,27.58
2022-08-07T19:54:35.608Z,27.97
2022-08-07T19:58:02.348Z,28.50
2022-08-07T20:00:21.858Z,28.83
2022-08-07T20:03:34.076Z,28.55
2022-08-07T20:06:37.887Z,28.29
2022-08-07T20:10:36.538Z,28.36
2022-08-07T20:13:22.917Z,28.47
2022-08-07T20:16:35.520Z,29.27
2022-08-07T20:19:47.687Z,28.87
2022-08-07T20:22:52.311Z,29.27
2022-08-07T20:25:54.191Z,29.32
2022-08-07T20:28:57.202Z,29.87
2022-08-07T20:31:59.929Z,30.17
2022-08-07T20:35:07.834Z,30.21
2022-08-07T20:38:10.397Z,29.70
2022-08-07T20:41:12.981Z,31.22
2022-08-07T20:44:19.423Z,31.07
2022-08-07T20:47:25.817Z,31.37
2022-08-07T20:50:47.621Z,31.29
2022-08-07T20:54:04.101Z,31.31
2022-08-07T20:57:10.355Z,30.41
2022-08-07T21:00:12.673Z,31.77
2022-08-07T21:03:23.234Z,30.23
2022-08-07T21:06:28.337Z,29.06
2022-08-07T21:09:51.671Z,29.16
2022-08-07T21:12:56.398Z,29.74
2022-08-07T21:16:00.848Z,28.94
2022-08-07T21:19:02.908Z,29.46
2022-08-07T21:22:05.675Z,31.47
2022-08-07T21:25:14.843Z,31.62
2022-08-07T21:28:49.491Z,31.01
2022-08-07T21:32:42.363Z,32.13
2022-08-07T21:35:09.426Z,31.97
2022-08-07T21:38:27.481Z,31.63
2022-08-07T21:41:37.945Z,31.04
2022-08-07T21:46:09.549Z,32.16
2022-08-07T21:48:56.437Z,31.94
2022-08-07T21:52:02.964Z,31.48
2022-08-07T21:55:19.301Z,33.32
2022-08-07T21:58:32.992Z,31.87
2022-08-07T22:02:10.948Z,31.51
2022-08-07T22:05:45.895Z,32.68
2022-08-07T22:08:51.544Z,32.83
2022-08-07T22:12:06.819Z,31.15
2022-08-07T22:16:38.397Z,31.71
2022-08-07T22:18:43.859Z,32.71
2022-08-07T22:22:05.386Z,33.06
2022-08-07T22:25:26.367Z,33.39
2022-08-07T22:28:32.683Z,32.55
2022-08-07T22:32:05.532Z,32.81
2022-08-07T22:35:08.109Z,32.48
2022-08-07T22:38:25.941Z,33.20
2022-08-07T22:42:02.309Z,32.85
2022-08-07T22:44:58.019Z,34.05
2022-08-07T22:48:56.309Z,34.14
2022-08-07T22:51:42.346Z,34.19
2022-08-07T22:54:50.202Z,34.54
2022-08-07T22:58:12.512Z,34.05
2022-08-07T23:01:49.493Z,33.21
2022-08-07T23:06:06.874Z,34.37
2022-08-07T23:08:47.838Z,33.69
2022-08-07T23:11:59.413Z,35.39
2022-08-07T23:15:10.640Z,33.31
2022-08-07T23:18:32.159Z,35.22
2022-08-07T23:21:38.434Z,33.90
2022-08-07T23:24:59.361Z,34.16
2022-08-07T23:28:22.648Z,33.57
2022-08-07T23:32:50.310Z,34.96
2022-08-07T23:34:56.715Z,34.32
2022-08-07T23:38:04.030Z,33.99
2022-08-07T23:41:24.360Z,34.51
2022-08-07T23:44:51.444Z,34.11
2022-08-07T23:48:01.596Z,34.11
2022-08-07T23:53:01.973Z,33.48
2022-08-07T23:55:12.477Z,33.16
2022-08-07T23:58:42.228Z,34.19
